Time;durP1;ratioP1;P1;durP2;ratioP2;P2;SDS_P1;SDS_P2;PMS_P1;PMS_P2;Temp;Humidity;BMP_temperature;BMP_pressure;BME280_temperature;BME280_humidity;BME280_pressure;Samples;Min_cycle;Max_cycle;Signal;HPM_P1;HPM_P2
2022/12/15 00:39:13;;;;;;;;;;;0.20;99.90;;;;;;5094204;28;20036;-57
2022/12/15 00:41:41;;;;;;;;;;;0.20;99.90;;;;;;5085288;28;19924;-57
2022/12/15 00:44:07;;;;;;;;;;;0.20;99.90;;;;;;5091947;28;19932;-57
2022/12/15 01:22:13;;;;;;;;;;;0.20;99.90;;;;;;5087207;28;19928;-55
2022/12/15 01:24:40;;;;;;;;;;;0.20;99.90;;;;;;5089724;28;20004;-55
2022/12/15 01:27:07;;;;;;;;;;;0.20;99.90;;;;;;5091065;28;19924;-55
2022/12/15 01:29:33;;;;;;;;;;;0.20;99.90;;;;;;5074027;28;19927;-55
2022/12/15 01:32:00;;;;;;;;;;;0.30;99.90;;;;;;5092722;28;19924;-55
2022/12/15 01:34:27;;;;;;;;;;;0.20;99.90;;;;;;5091440;28;19975;-55
2022/12/15 01:36:54;;;;;;;;;;;0.20;99.90;;;;;;5097659;28;19924;-55
2022/12/15 01:39:22;;;;;;;;;;;0.20;99.90;;;;;;5091395;28;19954;-55
2022/12/15 01:41:48;;;;;;;;;;;0.20;99.90;;;;;;5083965;28;19952;-55
2022/12/15 01:44:18;;;;;;;;;;;0.20;99.90;;;;;;5090097;28;20358;-55
2022/12/15 01:46:45;;;;;;;;;;;0.20;99.90;;;;;;5078257;28;19924;-55
2022/12/15 01:49:14;;;;;;;;;;;0.30;99.90;;;;;;5090097;28;19942;-56
2022/12/15 01:51:43;;;;;;;;;;;0.30;99.90;;;;;;5089791;28;19970;-55
2022/12/15 01:54:13;;;;;;;;;;;0.20;99.90;;;;;;5092619;28;20408;-55
2022/12/15 01:56:44;;;;;;;;;;;0.30;99.90;;;;;;5092111;28;20028;-55
2022/12/15 01:59:14;;;;;;;;;;;0.20;99.90;;;;;;5086998;28;20017;-55
2022/12/15 02:01:41;;;;;;;;;;;0.20;99.90;;;;;;5089352;28;19955;-55
2022/12/15 02:04:10;;;;;;;;;;;0.30;99.90;;;;;;5096237;28;19924;-55
2022/12/15 02:06:37;;;;;;;;;;;0.20;99.90;;;;;;5089883;28;20478;-55
2022/12/15 02:09:04;;;;;;;;;;;0.20;99.90;;;;;;5089061;28;19971;-55
2022/12/15 02:11:48;;;;;;;;;;;0.30;99.90;;;;;;5090783;28;19931;-55
2022/12/15 02:14:20;;;;;;;;;;;0.20;99.90;;;;;;5092900;28;19924;-55
2022/12/15 02:16:58;;;;;;;;;;;0.30;99.90;;;;;;5086972;28;19932;-55
2022/12/15 02:19:37;;;;;;;;;;;0.20;99.90;;;;;;5089999;28;19971;-55
2022/12/15 02:22:11;;;;;;;;;;;0.20;99.90;;;;;;5090570;28;20391;-55
2022/12/15 02:25:01;;;;;;;;;;;0.20;99.90;;;;;;5092161;28;19932;-55
2022/12/15 02:27:35;;;;;;;;;;;0.20;99.90;;;;;;5072686;28;19967;-55
2022/12/15 02:30:28;;;;;;;;;;;0.30;99.90;;;;;;5075280;28;19973;-55
2022/12/15 02:33:06;;;;;;;;;;;0.20;99.90;;;;;;5049785;28;20395;-55
2022/12/15 02:35:37;;;;;;;;;;;0.20;99.90;;;;;;5090493;28;19993;-55
2022/12/15 02:38:04;;;;;;;;;;;0.20;99.90;;;;;;5091296;28;19924;-55
2022/12/15 02:40:30;;;;;;;;;;;0.20;99.90;;;;;;5095436;28;19928;-55
2022/12/15 02:43:01;;;;;;;;;;;0.20;99.90;;;;;;5090822;28;19924;-56
2022/12/15 02:45:31;;;;;;;;;;;0.30;99.90;;;;;;5091202;28;19981;-55
2022/12/15 02:48:03;;;;;;;;;;;0.30;99.90;;;;;;5095916;28;20026;-55
2022/12/15 02:50:41;;;;;;;;;;;0.20;99.90;;;;;;5083821;28;19938;-53
2022/12/15 02:53:12;;;;;;;;;;;0.20;99.90;;;;;;5090301;28;19932;-53
2022/12/15 02:55:45;;;;;;;;;;;0.30;99.90;;;;;;5071021;28;20014;-53
2022/12/15 02:58:14;;;;;;;;;;;0.20;99.90;;;;;;5091886;28;20308;-53
2022/12/15 03:00:43;;;;;;;;;;;0.30;99.90;;;;;;5086735;28;19923;-53
2022/12/15 03:03:10;;;;;;;;;;;0.20;99.90;;;;;;5087476;28;19931;-53
2022/12/15 03:05:39;;;;;;;;;;;0.20;99.90;;;;;;5097354;28;20457;-53
2022/12/15 03:08:05;;;;;;;;;;;0.30;99.90;;;;;;5097573;28;20443;-53
2022/12/15 03:10:32;;;;;;;;;;;0.20;99.90;;;;;;5089141;28;19933;-53
2022/12/15 03:12:59;;;;;;;;;;;0.20;99.90;;;;;;5089177;28;20467;-53
2022/12/15 03:15:26;;;;;;;;;;;0.30;99.90;;;;;;5092518;28;20290;-53
2022/12/15 03:17:52;;;;;;;;;;;0.30;99.90;;;;;;5088388;28;20368;-53
2022/12/15 03:20:19;;;;;;;;;;;0.20;99.90;;;;;;5088977;28;19932;-53
2022/12/15 03:22:47;;;;;;;;;;;0.30;99.90;;;;;;5092607;28;19931;-53
2022/12/15 03:25:14;;;;;;;;;;;0.20;99.90;;;;;;5088813;28;19924;-54
2022/12/15 03:27:41;;;;;;;;;;;0.20;99.90;;;;;;5088207;28;20549;-53
2022/12/15 03:30:08;;;;;;;;;;;0.20;99.90;;;;;;5092420;28;19924;-53
2022/12/15 03:32:35;;;;;;;;;;;0.20;99.90;;;;;;5105083;28;19939;-53
2022/12/15 03:35:02;;;;;;;;;;;0.20;99.90;;;;;;5077719;28;20330;-53
2022/12/15 03:37:28;;;;;;;;;;;0.20;99.90;;;;;;5091101;28;19939;-53
2022/12/15 03:39:57;;;;;;;;;;;0.20;99.90;;;;;;5093457;28;19924;-53
2022/12/15 03:45:04;;;;;;;;;;;0.20;99.90;;;;;;5089537;28;19920;-53
2022/12/15 03:47:31;;;;;;;;;;;0.20;99.90;;;;;;5096044;28;20014;-53
2022/12/15 03:49:58;;;;;;;;;;;0.30;99.90;;;;;;5099060;28;19924;-53
2022/12/15 03:52:25;;;;;;;;;;;0.20;99.90;;;;;;5091491;28;20411;-53
2022/12/15 03:54:51;;;;;;;;;;;0.30;99.90;;;;;;5088748;28;20403;-52
2022/12/15 03:57:20;;;;;;;;;;;0.30;99.90;;;;;;5102034;28;19924;-53
2022/12/15 03:59:46;;;;;;;;;;;0.20;99.90;;;;;;5092879;28;20022;-53
2022/12/15 04:02:13;;;;;;;;;;;0.30;99.90;;;;;;5088222;28;20395;-53
2022/12/15 04:04:40;;;;;;;;;;;0.20;99.90;;;;;;5090081;28;19925;-53
2022/12/15 04:07:08;;;;;;;;;;;0.30;99.90;;;;;;5090390;28;19924;-53
2022/12/15 04:09:35;;;;;;;;;;;0.20;99.90;;;;;;5088857;28;20005;-53
2022/12/15 04:12:02;;;;;;;;;;;0.20;99.90;;;;;;5093731;28;20028;-53
2022/12/15 04:14:30;;;;;;;;;;;0.20;99.90;;;;;;5097767;28;19931;-53
2022/12/15 04:16:57;;;;;;;;;;;0.20;99.90;;;;;;5090683;28;21082;-53
2022/12/15 04:22:08;;;;;;;;;;;0.30;99.90;;;;;;5088509;28;20417;-54
2022/12/15 05:33:11;;;;;;;;;;;0.20;99.90;;;;;;5090778;28;19920;-56
2022/12/15 05:35:40;;;;;;;;;;;0.20;99.90;;;;;;5097978;28;19924;-55
2022/12/15 05:38:06;;;;;;;;;;;0.20;99.90;;;;;;5090559;28;19924;-57
2022/12/15 05:40:33;;;;;;;;;;;0.20;99.90;;;;;;5090659;28;19971;-57
2022/12/15 05:43:00;;;;;;;;;;;0.20;99.90;;;;;;5091680;28;20418;-58
2022/12/15 05:45:27;;;;;;;;;;;0.20;99.90;;;;;;5070742;28;20063;-56
2022/12/15 05:47:54;;;;;;;;;;;0.20;99.90;;;;;;5085955;28;20022;-57
2022/12/15 05:50:22;;;;;;;;;;;0.20;99.90;;;;;;5090541;28;20032;-57
2022/12/15 05:52:50;;;;;;;;;;;0.20;99.90;;;;;;5093208;28;20571;-57
2022/12/15 05:55:17;;;;;;;;;;;0.20;99.90;;;;;;5087941;28;19938;-57
2022/12/15 05:57:44;;;;;;;;;;;0.20;99.90;;;;;;5093805;28;20018;-56
2022/12/15 06:00:11;;;;;;;;;;;0.20;99.90;;;;;;5093646;28;20603;-60
2022/12/15 06:02:40;;;;;;;;;;;0.20;99.90;;;;;;5087953;28;19963;-57
2022/12/15 06:05:08;;;;;;;;;;;0.20;99.90;;;;;;5090806;28;20433;-57
2022/12/15 06:07:36;;;;;;;;;;;0.20;99.90;;;;;;5088450;28;20383;-57
2022/12/15 06:10:04;;;;;;;;;;;0.20;99.90;;;;;;5088456;28;19932;-59
2022/12/15 06:12:31;;;;;;;;;;;0.20;99.90;;;;;;5087313;28;19931;-58
2022/12/15 06:14:58;;;;;;;;;;;0.30;99.90;;;;;;5090357;28;19950;-58
2022/12/15 06:17:25;;;;;;;;;;;0.20;99.90;;;;;;5093486;28;19924;-57
2022/12/15 06:19:52;;;;;;;;;;;0.20;99.90;;;;;;5095720;28;20375;-58
2022/12/15 06:22:18;;;;;;;;;;;0.20;99.90;;;;;;5088526;28;20010;-57
2022/12/15 06:24:46;;;;;;;;;;;0.20;99.90;;;;;;5094333;28;19930;-57
2022/12/15 06:27:14;;;;;;;;;;;0.20;99.90;;;;;;5100273;28;19932;-57
2022/12/15 06:29:40;;;;;;;;;;;0.20;99.90;;;;;;5087217;28;20019;-57
2022/12/15 06:32:07;;;;;;;;;;;0.20;99.90;;;;;;5097436;28;20014;-56
2022/12/15 06:34:34;;;;;;;;;;;0.20;99.90;;;;;;5093724;28;20302;-57
2022/12/15 06:37:01;;;;;;;;;;;0.20;99.90;;;;;;5101250;28;19924;-56
2022/12/15 06:39:27;;;;;;;;;;;0.20;99.90;;;;;;5090555;28;19934;-56
2022/12/15 06:41:54;;;;;;;;;;;0.20;99.90;;;;;;5092766;28;19954;-57
2022/12/15 06:44:22;;;;;;;;;;;0.20;99.90;;;;;;5093020;28;20121;-56
2022/12/15 06:46:49;;;;;;;;;;;0.20;99.90;;;;;;5088751;28;19932;-56
2022/12/15 06:49:16;;;;;;;;;;;0.20;99.90;;;;;;5089864;28;19974;-56
2022/12/15 06:51:43;;;;;;;;;;;0.20;99.90;;;;;;5089322;28;19935;-54
2022/12/15 06:54:11;;;;;;;;;;;0.20;99.90;;;;;;5091162;28;19930;-55
2022/12/15 06:56:38;;;;;;;;;;;0.20;99.90;;;;;;5070618;28;19932;-54
2022/12/15 06:59:06;;;;;;;;;;;0.20;99.90;;;;;;5071938;28;19928;-55
2022/12/15 07:01:34;;;;;;;;;;;0.20;99.90;;;;;;5094471;28;20432;-54
2022/12/15 07:04:04;;;;;;;;;;;0.10;99.90;;;;;;5088725;28;20015;-55
2022/12/15 07:06:33;;;;;;;;;;;0.10;99.90;;;;;;5093556;28;20302;-55
2022/12/15 07:08:59;;;;;;;;;;;0.10;99.90;;;;;;5092859;28;20022;-55
2022/12/15 07:11:26;;;;;;;;;;;0.10;99.90;;;;;;5088373;28;19928;-55
2022/12/15 07:13:53;;;;;;;;;;;0.10;99.90;;;;;;5091705;28;20020;-54
2022/12/15 07:16:21;;;;;;;;;;;0.10;99.90;;;;;;5074257;28;20375;-54
2022/12/15 07:18:49;;;;;;;;;;;0.10;99.90;;;;;;5094316;28;19924;-54
2022/12/15 07:21:16;;;;;;;;;;;0.00;99.90;;;;;;5100345;28;19930;-54
2022/12/15 07:23:43;;;;;;;;;;;0.00;99.90;;;;;;5099182;28;19931;-54
2022/12/15 07:26:10;;;;;;;;;;;0.00;99.90;;;;;;5103446;28;19974;-54
2022/12/15 07:28:37;;;;;;;;;;;0.10;99.90;;;;;;5093783;28;19928;-54
2022/12/15 07:31:04;;;;;;;;;;;0.10;99.90;;;;;;5096752;28;19924;-54
2022/12/15 07:33:31;;;;;;;;;;;0.10;99.90;;;;;;5098001;28;19924;-54
2022/12/15 07:36:00;;;;;;;;;;;0.10;99.90;;;;;;5102686;28;19930;-54
2022/12/15 07:38:27;;;;;;;;;;;0.10;99.90;;;;;;5094197;28;19925;-54
2022/12/15 07:40:54;;;;;;;;;;;0.10;99.90;;;;;;5103910;28;19928;-54
2022/12/15 07:43:21;;;;;;;;;;;0.10;99.90;;;;;;5103240;28;19968;-54
2022/12/15 07:45:51;;;;;;;;;;;0.10;99.90;;;;;;5099086;28;19970;-55
2022/12/15 07:48:18;;;;;;;;;;;0.10;99.90;;;;;;5098414;28;20384;-56
2022/12/15 07:50:45;;;;;;;;;;;0.10;99.90;;;;;;5096722;28;20467;-57
2022/12/15 07:53:13;;;;;;;;;;;0.10;99.90;;;;;;5097043;28;20466;-53
2022/12/15 07:55:40;;;;;;;;;;;0.10;99.90;;;;;;5089560;28;19928;-53
2022/12/15 07:58:07;;;;;;;;;;;0.10;99.90;;;;;;5097735;28;19924;-53
2022/12/15 08:00:34;;;;;;;;;;;0.10;99.90;;;;;;5097708;28;19923;-53
2022/12/15 08:03:01;;;;;;;;;;;0.10;99.90;;;;;;5094110;28;19928;-53
2022/12/15 08:05:28;;;;;;;;;;;0.10;99.90;;;;;;5095274;28;19928;-53
2022/12/15 08:07:56;;;;;;;;;;;0.10;99.90;;;;;;5098408;28;19932;-53
2022/12/15 08:10:24;;;;;;;;;;;0.10;99.90;;;;;;5099930;28;19963;-53
2022/12/15 08:12:52;;;;;;;;;;;0.10;99.90;;;;;;5093740;28;19924;-53
2022/12/15 08:15:19;;;;;;;;;;;0.10;99.90;;;;;;5096768;28;20020;-53
2022/12/15 08:17:45;;;;;;;;;;;0.10;99.90;;;;;;5094857;28;19947;-53
2022/12/15 08:20:13;;;;;;;;;;;0.10;99.90;;;;;;5092303;28;19939;-53
2022/12/15 08:22:40;;;;;;;;;;;0.10;99.90;;;;;;5094959;28;20314;-53
2022/12/15 08:25:07;;;;;;;;;;;0.10;99.90;;;;;;5100866;28;19931;-53
2022/12/15 08:27:36;;;;;;;;;;;0.10;99.90;;;;;;5096708;28;20015;-54
2022/12/15 08:30:02;;;;;;;;;;;0.10;99.90;;;;;;5097327;28;19924;-54
2022/12/15 08:32:29;;;;;;;;;;;0.10;99.90;;;;;;5095356;28;19924;-54
2022/12/15 08:34:56;;;;;;;;;;;0.10;99.90;;;;;;5098372;28;19930;-54
2022/12/15 08:37:23;;;;;;;;;;;0.10;99.90;;;;;;5081249;28;19931;-54
2022/12/15 08:39:49;;;;;;;;;;;0.10;99.90;;;;;;5108182;28;20030;-54
2022/12/15 08:42:16;;;;;;;;;;;0.10;99.90;;;;;;5091580;28;19924;-54
2022/12/15 08:44:47;;;;;;;;;;;0.10;99.90;;;;;;5107451;28;19927;-54
2022/12/15 08:47:14;;;;;;;;;;;0.10;99.90;;;;;;5101814;28;20442;-54
2022/12/15 08:49:41;;;;;;;;;;;0.10;99.90;;;;;;5091607;28;20348;-54
2022/12/15 08:52:11;;;;;;;;;;;0.10;99.90;;;;;;5097388;28;20377;-54
2022/12/15 08:54:38;;;;;;;;;;;0.10;99.90;;;;;;5093866;28;20325;-54
2022/12/15 08:57:05;;;;;;;;;;;0.20;99.90;;;;;;5099835;28;20390;-54
2022/12/15 08:59:31;;;;;;;;;;;0.20;99.90;;;;;;5094609;28;19928;-54
2022/12/15 09:02:00;;;;;;;;;;;0.20;99.90;;;;;;5094901;28;20024;-54
2022/12/15 09:04:27;;;;;;;;;;;0.10;99.90;;;;;;5090197;28;21243;-54
2022/12/15 09:06:53;;;;;;;;;;;0.10;99.90;;;;;;5083172;28;19928;-54
2022/12/15 09:09:20;;;;;;;;;;;0.20;99.90;;;;;;5077221;28;19924;-54
2022/12/15 09:11:47;;;;;;;;;;;0.20;99.90;;;;;;5092895;28;20412;-54
2022/12/15 09:14:14;;;;;;;;;;;0.20;99.90;;;;;;5100037;28;20458;-54
2022/12/15 09:16:41;;;;;;;;;;;0.20;99.90;;;;;;5093764;28;19932;-54
2022/12/15 09:19:10;;;;;;;;;;;0.20;99.90;;;;;;5099289;28;20022;-54
2022/12/15 09:21:38;;;;;;;;;;;0.20;99.90;;;;;;5102387;28;20272;-54
2022/12/15 09:24:05;;;;;;;;;;;0.20;99.90;;;;;;5097485;28;19935;-54
2022/12/15 09:26:33;;;;;;;;;;;0.20;99.90;;;;;;5087315;28;19985;-54
2022/12/15 09:29:00;;;;;;;;;;;0.20;99.90;;;;;;5071609;28;19923;-54
2022/12/15 09:31:28;;;;;;;;;;;0.20;99.90;;;;;;5098955;28;20401;-54
2022/12/15 09:33:55;;;;;;;;;;;0.20;99.90;;;;;;5096970;28;19962;-54
2022/12/15 09:36:24;;;;;;;;;;;0.20;99.90;;;;;;5100622;28;20328;-54
2022/12/15 09:38:51;;;;;;;;;;;0.20;99.90;;;;;;5103932;28;19978;-54
2022/12/15 09:41:20;;;;;;;;;;;0.20;99.90;;;;;;5092477;28;19928;-54
2022/12/15 09:43:50;;;;;;;;;;;0.20;99.90;;;;;;5096026;28;20021;-54
2022/12/15 09:46:21;;;;;;;;;;;0.20;99.90;;;;;;5097804;28;20383;-54
2022/12/15 09:48:49;;;;;;;;;;;0.20;99.90;;;;;;5091754;28;19924;-54
2022/12/15 09:51:17;;;;;;;;;;;0.20;99.90;;;;;;5087133;28;20517;-54
2022/12/15 09:53:45;;;;;;;;;;;0.20;99.90;;;;;;5101121;28;20298;-54
2022/12/15 09:56:15;;;;;;;;;;;0.20;99.90;;;;;;5090482;28;20314;-55
2022/12/15 09:58:50;;;;;;;;;;;0.20;99.90;;;;;;5099085;28;20023;-54
2022/12/15 10:01:23;;;;;;;;;;;0.30;99.90;;;;;;5088521;28;19981;-54
2022/12/15 10:03:54;;;;;;;;;;;0.20;99.90;;;;;;5096790;28;20008;-54
2022/12/15 10:06:24;;;;;;;;;;;0.30;99.90;;;;;;5087285;28;19969;-54
2022/12/15 10:08:54;;;;;;;;;;;0.20;99.90;;;;;;5093658;28;19951;-54
2022/12/15 10:11:24;;;;;;;;;;;0.20;99.90;;;;;;5091998;28;19930;-54
2022/12/15 10:13:54;;;;;;;;;;;0.20;99.90;;;;;;5091790;28;19924;-54
2022/12/15 10:16:24;;;;;;;;;;;0.20;99.90;;;;;;5094540;28;19977;-54
2022/12/15 10:18:55;;;;;;;;;;;0.20;99.90;;;;;;5089695;28;20467;-54
2022/12/15 10:21:25;;;;;;;;;;;0.20;99.90;;;;;;5092824;28;20432;-54
2022/12/15 10:23:54;;;;;;;;;;;0.20;99.90;;;;;;5096447;28;19928;-54
2022/12/15 10:26:23;;;;;;;;;;;0.20;99.90;;;;;;5070852;28;20375;-54
2022/12/15 10:28:54;;;;;;;;;;;0.20;99.90;;;;;;5092226;28;19932;-54
2022/12/15 10:31:25;;;;;;;;;;;0.20;99.90;;;;;;5095172;28;20413;-54
2022/12/15 10:33:54;;;;;;;;;;;0.30;99.90;;;;;;5095241;28;20030;-55
2022/12/15 10:36:21;;;;;;;;;;;0.30;99.90;;;;;;5087249;28;20019;-54
2022/12/15 10:38:48;;;;;;;;;;;0.30;99.90;;;;;;5094883;28;19924;-54
2022/12/15 10:41:18;;;;;;;;;;;0.30;99.90;;;;;;5097452;28;20023;-54
2022/12/15 10:43:46;;;;;;;;;;;0.20;99.90;;;;;;5094431;28;20442;-54
2022/12/15 10:46:14;;;;;;;;;;;0.30;99.90;;;;;;5089861;28;19990;-54
2022/12/15 10:48:41;;;;;;;;;;;0.30;99.90;;;;;;5088523;28;19924;-54
2022/12/15 10:51:18;;;;;;;;;;;0.30;99.90;;;;;;5095332;28;19955;-54
2022/12/15 10:53:47;;;;;;;;;;;0.20;99.90;;;;;;5097714;28;20422;-54
2022/12/15 10:56:19;;;;;;;;;;;0.30;99.90;;;;;;5091700;28;19935;-54
2022/12/15 10:58:47;;;;;;;;;;;0.20;99.90;;;;;;5094094;28;20007;-54
2022/12/15 11:01:18;;;;;;;;;;;0.30;99.90;;;;;;5090200;28;19928;-54
2022/12/15 11:03:49;;;;;;;;;;;0.30;99.90;;;;;;5098544;28;19950;-54
2022/12/15 11:06:17;;;;;;;;;;;0.30;99.90;;;;;;5070345;28;19928;-54
2022/12/15 11:08:46;;;;;;;;;;;0.30;99.90;;;;;;5091036;28;19927;-54
2022/12/15 11:14:13;;;;;;;;;;;0.30;99.90;;;;;;5080656;28;19928;-55
2022/12/15 11:16:45;;;;;;;;;;;0.30;99.90;;;;;;5092802;28;19924;-54
2022/12/15 11:19:14;;;;;;;;;;;0.30;99.90;;;;;;5096474;28;20004;-54
2022/12/15 11:21:44;;;;;;;;;;;0.30;99.90;;;;;;5102427;28;19932;-54
2022/12/15 11:24:14;;;;;;;;;;;0.30;99.90;;;;;;5088294;28;19924;-54
2022/12/15 11:26:48;;;;;;;;;;;0.30;99.90;;;;;;5092392;28;19932;-54
2022/12/15 11:29:26;;;;;;;;;;;0.30;99.90;;;;;;5092150;28;19966;-54
2022/12/15 11:31:53;;;;;;;;;;;0.30;99.90;;;;;;5090281;28;19989;-55
2022/12/15 11:34:22;;;;;;;;;;;0.30;99.90;;;;;;5093171;28;20298;-54
2022/12/15 11:37:07;;;;;;;;;;;0.30;99.90;;;;;;5098557;28;19931;-54
2022/12/15 11:39:47;;;;;;;;;;;0.30;99.90;;;;;;5091292;28;19994;-54
2022/12/15 11:42:21;;;;;;;;;;;0.30;99.90;;;;;;5088899;28;19977;-54
2022/12/15 11:44:52;;;;;;;;;;;0.30;99.90;;;;;;5087788;28;20011;-54
2022/12/15 11:47:24;;;;;;;;;;;0.30;99.90;;;;;;5094974;28;20009;-54
2022/12/15 11:49:56;;;;;;;;;;;0.30;99.90;;;;;;5091674;28;19967;-54
2022/12/15 11:52:33;;;;;;;;;;;0.30;99.90;;;;;;5101755;28;20016;-54
2022/12/15 11:55:06;;;;;;;;;;;0.30;99.90;;;;;;5098058;28;20010;-54
2022/12/15 11:57:46;;;;;;;;;;;0.30;99.90;;;;;;5096221;28;19936;-54
2022/12/15 12:00:15;;;;;;;;;;;0.30;99.90;;;;;;5078097;28;20018;-54
2022/12/15 12:02:51;;;;;;;;;;;0.40;99.90;;;;;;5087197;28;20387;-54
2022/12/15 12:05:26;;;;;;;;;;;0.40;99.90;;;;;;5088315;28;19935;-54
2022/12/15 12:07:56;;;;;;;;;;;0.40;99.90;;;;;;5096964;28;19963;-54
2022/12/15 12:10:28;;;;;;;;;;;0.40;99.90;;;;;;5097814;28;19928;-54
2022/12/15 12:13:00;;;;;;;;;;;0.40;99.90;;;;;;5080389;28;19924;-54
2022/12/15 12:15:29;;;;;;;;;;;0.40;99.90;;;;;;5095956;28;19932;-54
2022/12/15 12:18:00;;;;;;;;;;;0.40;99.90;;;;;;5103788;28;20366;-54
2022/12/15 12:20:28;;;;;;;;;;;0.40;99.90;;;;;;5098804;28;19975;-54
2022/12/15 12:23:01;;;;;;;;;;;0.40;99.90;;;;;;5105896;28;19928;-54
2022/12/15 12:25:29;;;;;;;;;;;0.40;99.90;;;;;;5093117;28;19932;-54
2022/12/15 12:27:58;;;;;;;;;;;0.40;99.90;;;;;;5098941;28;19924;-54
2022/12/15 12:30:30;;;;;;;;;;;0.40;99.90;;;;;;5102492;28;20400;-55
2022/12/15 12:32:59;;;;;;;;;;;0.40;99.90;;;;;;5098876;28;19925;-58
2022/12/15 12:35:30;;;;;;;;;;;0.40;99.90;;;;;;5091763;28;19928;-54
2022/12/15 12:38:00;;;;;;;;;;;0.40;99.90;;;;;;5077711;28;19931;-54
2022/12/15 12:40:31;;;;;;;;;;;0.40;99.90;;;;;;5096501;28;19923;-54
2022/12/15 12:42:58;;;;;;;;;;;0.40;99.90;;;;;;5093091;28;20017;-54
2022/12/15 12:45:28;;;;;;;;;;;0.40;99.90;;;;;;5094296;28;20314;-54
2022/12/15 12:47:57;;;;;;;;;;;0.40;99.90;;;;;;5094165;28;20019;-54
2022/12/15 12:50:25;;;;;;;;;;;0.40;99.90;;;;;;5070679;28;19932;-54
2022/12/15 12:52:52;;;;;;;;;;;0.40;99.90;;;;;;5096231;28;20386;-54
2022/12/15 12:55:37;;;;;;;;;;;0.40;99.90;;;;;;5074936;28;20577;-54
2022/12/15 12:58:04;;;;;;;;;;;0.40;99.90;;;;;;5092101;28;19972;-54
2022/12/15 13:00:32;;;;;;;;;;;0.40;99.90;;;;;;5085629;28;19928;-54
2022/12/15 13:03:15;;;;;;;;;;;0.40;99.90;;;;;;5072469;28;19924;-54
2022/12/15 13:05:42;;;;;;;;;;;0.40;99.90;;;;;;5096742;28;19924;-54
2022/12/15 13:08:38;;;;;;;;;;;0.40;99.90;;;;;;5092064;28;19930;-54
2022/12/15 13:11:20;;;;;;;;;;;0.40;99.90;;;;;;5088086;28;19969;-54
2022/12/15 13:13:47;;;;;;;;;;;0.40;99.90;;;;;;5092564;28;20014;-54
2022/12/15 13:16:20;;;;;;;;;;;0.40;99.90;;;;;;5076115;28;19928;-54
2022/12/15 13:19:02;;;;;;;;;;;0.40;99.90;;;;;;5092206;28;20387;-54
2022/12/15 13:21:51;;;;;;;;;;;0.40;99.90;;;;;;5094126;28;19935;-54
2022/12/15 13:24:22;;;;;;;;;;;0.40;99.90;;;;;;5089538;28;19928;-54
2022/12/15 13:26:49;;;;;;;;;;;0.40;99.90;;;;;;5093293;28;20382;-54
2022/12/15 13:29:21;;;;;;;;;;;0.40;99.90;;;;;;5092896;28;19924;-54
2022/12/15 13:31:51;;;;;;;;;;;0.40;99.90;;;;;;5094433;28;19963;-54
2022/12/15 13:34:19;;;;;;;;;;;0.40;99.90;;;;;;5090112;28;19928;-54
2022/12/15 13:36:50;;;;;;;;;;;0.40;99.90;;;;;;5099204;28;19931;-53
2022/12/15 13:39:50;;;;;;;;;;;0.40;99.90;;;;;;5094194;28;19925;-53
2022/12/15 13:42:33;;;;;;;;;;;0.40;99.90;;;;;;5009746;28;19925;-53
2022/12/15 13:45:14;;;;;;;;;;;0.40;99.90;;;;;;5010300;28;19935;-53
2022/12/15 13:47:50;;;;;;;;;;;0.40;99.90;;;;;;5068992;28;19966;-53
2022/12/15 13:50:21;;;;;;;;;;;0.40;99.90;;;;;;5091191;28;20386;-54
2022/12/15 13:52:50;;;;;;;;;;;0.40;99.90;;;;;;5095355;28;19924;-53
2022/12/15 13:55:19;;;;;;;;;;;0.40;99.90;;;;;;5091880;28;19924;-54
2022/12/15 13:57:51;;;;;;;;;;;0.40;99.90;;;;;;5096799;28;19931;-53
2022/12/15 14:00:18;;;;;;;;;;;0.40;99.90;;;;;;5088800;28;19931;-53
2022/12/15 14:02:47;;;;;;;;;;;0.40;99.90;;;;;;5089152;28;20338;-53
2022/12/15 14:05:17;;;;;;;;;;;0.50;99.90;;;;;;5097500;28;19932;-54
2022/12/15 14:07:45;;;;;;;;;;;0.40;99.90;;;;;;5093147;28;20002;-54
2022/12/15 14:10:17;;;;;;;;;;;0.40;99.90;;;;;;5090715;28;20023;-54
2022/12/15 14:12:44;;;;;;;;;;;0.40;99.90;;;;;;5086372;28;19928;-56
2022/12/15 14:15:12;;;;;;;;;;;0.40;99.90;;;;;;5087222;28;19998;-56
2022/12/15 14:17:39;;;;;;;;;;;0.40;99.90;;;;;;5090728;28;19924;-56
2022/12/15 14:20:13;;;;;;;;;;;0.40;99.90;;;;;;5091021;28;19928;-57
2022/12/15 14:22:42;;;;;;;;;;;0.40;99.90;;;;;;5091900;28;20272;-57
2022/12/15 14:25:14;;;;;;;;;;;0.40;99.90;;;;;;5091826;28;19924;-57
2022/12/15 14:27:41;;;;;;;;;;;0.40;99.90;;;;;;5082765;28;19924;-56
2022/12/15 14:30:22;;;;;;;;;;;0.40;99.90;;;;;;5095817;28;19977;-57
2022/12/15 14:32:50;;;;;;;;;;;0.40;99.90;;;;;;5094184;28;20363;-57
2022/12/15 14:35:21;;;;;;;;;;;0.40;99.90;;;;;;5091358;28;19997;-57
2022/12/15 14:37:48;;;;;;;;;;;0.40;99.90;;;;;;5100546;28;19924;-57
2022/12/15 14:40:16;;;;;;;;;;;0.40;99.90;;;;;;5089093;28;19997;-57
2022/12/15 14:42:44;;;;;;;;;;;0.40;99.90;;;;;;5098406;28;20581;-56
2022/12/15 14:45:17;;;;;;;;;;;0.40;99.90;;;;;;5098367;28;19924;-57
2022/12/15 14:47:48;;;;;;;;;;;0.40;99.90;;;;;;5095912;28;19956;-56
2022/12/15 14:50:16;;;;;;;;;;;0.40;99.90;;;;;;5087229;28;19924;-57
2022/12/15 14:52:44;;;;;;;;;;;0.40;99.90;;;;;;5095532;28;20015;-55
2022/12/15 14:55:26;;;;;;;;;;;0.40;99.90;;;;;;5096385;28;19923;-55
2022/12/15 14:57:53;;;;;;;;;;;0.40;99.90;;;;;;5092779;28;19928;-54
2022/12/15 15:00:25;;;;;;;;;;;0.40;99.90;;;;;;5093980;28;19927;-54
2022/12/15 15:03:07;;;;;;;;;;;0.40;99.90;;;;;;5091300;28;20010;-55
2022/12/15 15:05:36;;;;;;;;;;;0.40;99.90;;;;;;5090019;28;19971;-55
2022/12/15 15:08:05;;;;;;;;;;;0.40;99.90;;;;;;5088684;28;19955;-55
2022/12/15 15:10:32;;;;;;;;;;;0.40;99.90;;;;;;5087454;28;20415;-55
2022/12/15 15:13:02;;;;;;;;;;;0.40;99.90;;;;;;5094429;28;19969;-55
2022/12/15 15:15:29;;;;;;;;;;;0.40;99.90;;;;;;5093969;28;19935;-55
2022/12/15 15:17:57;;;;;;;;;;;0.40;99.90;;;;;;5074658;28;19924;-54
2022/12/15 15:20:26;;;;;;;;;;;0.40;99.90;;;;;;5088974;28;19932;-54
2022/12/15 15:23:13;;;;;;;;;;;0.40;99.90;;;;;;5095994;28;20264;-55
2022/12/15 15:25:48;;;;;;;;;;;0.40;99.90;;;;;;5094034;28;19924;-54
2022/12/15 15:28:20;;;;;;;;;;;0.40;99.90;;;;;;5094883;28;20458;-55
2022/12/15 15:30:47;;;;;;;;;;;0.40;99.90;;;;;;5095275;28;19932;-55
2022/12/15 15:33:14;;;;;;;;;;;0.40;99.90;;;;;;5096504;28;19924;-54
2022/12/15 15:35:41;;;;;;;;;;;0.40;99.90;;;;;;5085643;28;20383;-54
2022/12/15 15:38:16;;;;;;;;;;;0.40;99.90;;;;;;5098172;28;19924;-54
2022/12/15 15:40:47;;;;;;;;;;;0.40;99.90;;;;;;5090051;28;19931;-54
2022/12/15 15:43:15;;;;;;;;;;;0.40;99.90;;;;;;5094964;28;19932;-54
2022/12/15 15:45:44;;;;;;;;;;;0.40;99.90;;;;;;5094172;28;19924;-54
2022/12/15 15:48:14;;;;;;;;;;;0.40;99.90;;;;;;5088917;28;20315;-54
2022/12/15 15:50:41;;;;;;;;;;;0.40;99.90;;;;;;5094842;28;19928;-54
2022/12/15 15:53:10;;;;;;;;;;;0.40;99.90;;;;;;5092690;28;19970;-54
2022/12/15 15:55:37;;;;;;;;;;;0.40;99.90;;;;;;5097551;28;19943;-54
2022/12/15 15:58:08;;;;;;;;;;;0.40;99.90;;;;;;5100833;28;19924;-54
2022/12/15 16:00:35;;;;;;;;;;;0.40;99.90;;;;;;5091415;28;19985;-54
2022/12/15 16:03:02;;;;;;;;;;;0.40;99.90;;;;;;5094878;28;19924;-54
2022/12/15 16:05:29;;;;;;;;;;;0.40;99.90;;;;;;5074000;28;19934;-54
2022/12/15 16:07:55;;;;;;;;;;;0.40;99.90;;;;;;5076072;28;19964;-54
2022/12/15 16:10:22;;;;;;;;;;;0.40;99.90;;;;;;5095392;28;19962;-54
2022/12/15 16:12:50;;;;;;;;;;;0.40;99.90;;;;;;5095759;28;20001;-54
2022/12/15 16:15:22;;;;;;;;;;;0.40;99.90;;;;;;5095948;28;20019;-54
2022/12/15 16:17:49;;;;;;;;;;;0.40;99.90;;;;;;5090404;28;19924;-53
2022/12/15 16:20:17;;;;;;;;;;;0.40;99.90;;;;;;5097297;28;19924;-54
2022/12/15 16:22:45;;;;;;;;;;;0.40;99.90;;;;;;5102428;28;19927;-54
2022/12/15 16:25:14;;;;;;;;;;;0.40;99.90;;;;;;5100603;28;19924;-54
2022/12/15 16:27:41;;;;;;;;;;;0.40;99.90;;;;;;5090294;28;19932;-54
2022/12/15 16:30:14;;;;;;;;;;;0.40;99.90;;;;;;5090818;28;19924;-53
2022/12/15 16:32:42;;;;;;;;;;;0.40;99.90;;;;;;5098625;28;19932;-54
2022/12/15 16:35:10;;;;;;;;;;;0.40;99.90;;;;;;5071828;28;19924;-54
2022/12/15 16:37:37;;;;;;;;;;;0.40;99.90;;;;;;5092403;28;19932;-54
2022/12/15 16:40:13;;;;;;;;;;;0.30;99.90;;;;;;5071809;28;19932;-53
2022/12/15 16:42:40;;;;;;;;;;;0.30;99.90;;;;;;5093582;28;20347;-53
2022/12/15 16:45:14;;;;;;;;;;;0.30;99.90;;;;;;5094639;28;19924;-54
2022/12/15 16:47:43;;;;;;;;;;;0.30;99.90;;;;;;5090583;28;19971;-53
2022/12/15 16:50:12;;;;;;;;;;;0.30;99.90;;;;;;5087720;28;20345;-53
2022/12/15 16:52:39;;;;;;;;;;;0.40;99.90;;;;;;5093623;28;19931;-53
2022/12/15 16:55:07;;;;;;;;;;;0.30;99.90;;;;;;5094581;28;19930;-53
2022/12/15 16:57:33;;;;;;;;;;;0.30;99.90;;;;;;5090526;28;19959;-53
2022/12/15 17:00:00;;;;;;;;;;;0.30;99.90;;;;;;5092895;28;19931;-54
2022/12/15 17:02:28;;;;;;;;;;;0.40;99.90;;;;;;5090869;28;19932;-54
2022/12/15 17:04:56;;;;;;;;;;;0.30;99.90;;;;;;5093618;28;19924;-54
2022/12/15 17:07:24;;;;;;;;;;;0.30;99.90;;;;;;5093249;28;20026;-53
2022/12/15 17:09:51;;;;;;;;;;;0.30;99.90;;;;;;5091265;28;20027;-54
2022/12/15 17:12:17;;;;;;;;;;;0.30;99.90;;;;;;5089412;28;19928;-54
2022/12/15 17:14:44;;;;;;;;;;;0.30;99.90;;;;;;5091156;28;20438;-54